createdAt,value
2023-04-16T00:01:12.149Z,7.46
2023-04-16T00:03:38.922Z,7.32
2023-04-16T00:06:05.698Z,7.30
2023-04-16T00:08:32.131Z,7.35
2023-04-16T00:10:58.763Z,7.31
2023-04-16T00:13:26.989Z,7.31
2023-04-16T00:15:53.446Z,7.31
2023-04-16T00:18:21.216Z,7.32
2023-04-16T00:20:49.084Z,7.25
2023-04-16T00:23:15.544Z,7.44
2023-04-16T00:25:45.095Z,7.46
2023-04-16T00:28:14.605Z,7.49
2023-04-16T00:30:45.007Z,7.39
2023-04-16T00:33:11.771Z,7.33
2023-04-16T00:35:38.263Z,7.34
2023-04-16T00:38:04.730Z,7.26
2023-04-16T00:40:31.401Z,7.39
2023-04-16T00:42:57.848Z,7.31
2023-04-16T00:45:24.329Z,7.50
2023-04-16T00:47:51.012Z,7.46
2023-04-16T00:50:17.785Z,7.35
2023-04-16T00:52:48.729Z,7.37
2023-04-16T00:55:17.645Z,7.41
2023-04-16T00:57:46.876Z,7.37
2023-04-16T01:00:16.708Z,7.26
2023-04-16T01:02:45.674Z,7.25
2023-04-16T01:05:12.418Z,7.24
2023-04-16T01:07:39.692Z,7.22
2023-04-16T01:10:06.754Z,7.24
2023-04-16T01:12:33.194Z,7.15
2023-04-16T01:14:59.775Z,7.26
2023-04-16T01:17:26.315Z,7.29
2023-04-16T01:19:52.855Z,7.31
2023-04-16T01:22:19.340Z,7.27
2023-04-16T01:24:48.593Z,7.28
2023-04-16T01:27:18.777Z,7.29
2023-04-16T01:29:49.222Z,7.35
2023-04-16T01:32:18.153Z,7.36
2023-04-16T01:34:46.894Z,7.36
2023-04-16T01:37:13.476Z,7.30
2023-04-16T01:39:39.897Z,7.31
2023-04-16T01:42:06.332Z,7.31
2023-04-16T01:44:32.811Z,7.40
2023-04-16T01:46:59.356Z,7.43
2023-04-16T01:49:25.931Z,7.37
2023-04-16T01:51:53.001Z,7.37
2023-04-16T01:54:19.536Z,7.40
2023-04-16T01:56:49.022Z,7.49
2023-04-16T01:59:16.199Z,7.48
2023-04-16T02:01:43.301Z,7.53
2023-04-16T02:04:10.520Z,7.45
2023-04-16T02:06:37.268Z,7.44
2023-04-16T02:09:03.964Z,7.44
2023-04-16T02:11:30.559Z,7.53
2023-04-16T02:13:56.995Z,7.58
2023-04-16T02:16:24.099Z,7.52
2023-04-16T02:18:50.713Z,7.62
2023-04-16T02:21:18.622Z,7.65
2023-04-16T02:23:48.180Z,7.68
2023-04-16T02:26:14.635Z,7.70
2023-04-16T02:28:41.049Z,7.73
2023-04-16T02:31:07.553Z,7.76
2023-04-16T02:33:35.857Z,7.77
2023-04-16T02:36:02.376Z,7.71
2023-04-16T02:38:28.810Z,7.62
2023-04-16T02:40:55.225Z,7.56
2023-04-16T02:43:21.939Z,7.68
2023-04-16T02:45:49.539Z,7.63
2023-04-16T02:48:16.034Z,7.65
2023-04-16T02:50:42.486Z,7.56
2023-04-16T02:53:10.530Z,7.59
2023-04-16T02:55:37.029Z,7.48
2023-04-16T02:58:03.488Z,7.50
2023-04-16T03:00:29.974Z,7.43
2023-04-16T03:02:56.535Z,7.42
2023-04-16T03:05:23.123Z,7.39
2023-04-16T03:07:50.726Z,7.18
2023-04-16T03:10:17.260Z,7.16
2023-04-16T03:12:43.730Z,7.22
2023-04-16T03:15:10.687Z,7.11
2023-04-16T03:17:37.232Z,7.09
2023-04-16T03:20:04.251Z,7.02
2023-04-16T03:22:30.812Z,6.90
2023-04-16T03:24:57.250Z,6.99
2023-04-16T03:27:23.799Z,6.96
2023-04-16T03:29:52.792Z,7.03
2023-04-16T03:32:19.279Z,6.93
2023-04-16T03:34:46.101Z,6.89
2023-04-16T03:37:12.643Z,6.95
2023-04-16T03:39:39.150Z,6.93
2023-04-16T03:42:05.830Z,6.98
2023-04-16T03:44:32.285Z,6.92
2023-04-16T03:46:58.981Z,6.83
2023-04-16T03:49:25.879Z,6.81
2023-04-16T03:51:55.022Z,6.84
2023-04-16T03:54:23.018Z,6.93
2023-04-16T03:56:49.832Z,6.88
2023-04-16T03:59:16.322Z,6.95
2023-04-16T04:01:42.757Z,6.98
2023-04-16T04:04:09.783Z,6.97
2023-04-16T04:06:36.477Z,7.11
2023-04-16T04:09:03.280Z,7.09
2023-04-16T04:11:29.845Z,6.96
2023-04-16T04:13:56.276Z,6.91
2023-04-16T04:16:25.445Z,6.91
2023-04-16T04:18:52.048Z,6.74
2023-04-16T04:21:18.476Z,6.88
2023-04-16T04:23:44.992Z,6.84
2023-04-16T04:26:11.472Z,6.77
2023-04-16T04:28:38.021Z,6.75
2023-04-16T04:31:04.553Z,6.80
2023-04-16T04:33:31.243Z,6.83
2023-04-16T04:35:57.770Z,6.78
2023-04-16T04:38:25.535Z,6.76
2023-04-16T04:40:53.036Z,6.75
2023-04-16T04:43:22.463Z,6.72
2023-04-16T04:45:49.310Z,6.82
2023-04-16T04:48:16.269Z,6.86
2023-04-16T04:50:43.110Z,6.85
2023-04-16T04:53:14.790Z,6.90
2023-04-16T04:55:41.517Z,6.88
2023-04-16T04:58:08.606Z,6.91
2023-04-16T05:00:36.348Z,6.89
2023-04-16T05:03:05.927Z,6.90
2023-04-16T05:05:32.694Z,6.82
2023-04-16T05:07:59.232Z,6.89
2023-04-16T05:10:28.632Z,6.77
2023-04-16T05:12:58.373Z,6.83
2023-04-16T05:15:28.618Z,6.82
2023-04-16T05:17:57.893Z,6.86
2023-04-16T05:20:27.221Z,6.82
2023-04-16T05:22:58.244Z,6.83
2023-04-16T05:25:28.109Z,6.93
2023-04-16T05:27:57.335Z,6.96
2023-04-16T05:30:25.872Z,6.95
2023-04-16T05:32:52.397Z,7.01
2023-04-16T05:35:19.001Z,6.92
2023-04-16T05:37:45.579Z,6.92
2023-04-16T05:40:14.031Z,6.85
2023-04-16T05:42:40.527Z,6.90
2023-04-16T05:45:07.507Z,6.73
2023-04-16T05:47:34.022Z,6.79
2023-04-16T05:50:00.559Z,6.66
2023-04-16T05:52:27.018Z,6.53
2023-04-16T05:54:53.443Z,6.51
2023-04-16T05:57:19.920Z,6.48
2023-04-16T05:59:46.421Z,6.41
2023-04-16T06:02:13.056Z,6.58
2023-04-16T06:04:39.777Z,6.53
2023-04-16T06:07:06.216Z,6.45
2023-04-16T06:09:32.624Z,6.38
2023-04-16T06:11:59.779Z,6.35
2023-04-16T06:14:26.616Z,6.40
2023-04-16T06:16:53.132Z,6.50
2023-04-16T06:19:19.653Z,6.61
2023-04-16T06:21:46.208Z,6.66
2023-04-16T06:24:13.360Z,6.79
2023-04-16T06:26:39.931Z,6.86
2023-04-16T06:29:06.445Z,6.92
2023-04-16T06:31:33.064Z,7.06
2023-04-16T06:33:59.634Z,7.06
2023-04-16T06:36:27.571Z,7.12
2023-04-16T06:38:54.262Z,7.21
2023-04-16T06:41:22.714Z,7.22
2023-04-16T06:43:49.522Z,7.15
2023-04-16T06:46:16.038Z,6.94
2023-04-16T06:48:42.588Z,6.85
2023-04-16T06:51:09.180Z,6.93
2023-04-16T06:53:37.578Z,6.95
2023-04-16T06:56:04.622Z,7.06
2023-04-16T06:58:31.216Z,7.00
2023-04-16T07:00:57.848Z,6.87
2023-04-16T07:03:28.096Z,6.94
2023-04-16T07:05:57.633Z,6.86
2023-04-16T07:08:27.657Z,6.97
2023-04-16T07:10:54.831Z,7.08
2023-04-16T07:13:21.816Z,7.21
2023-04-16T07:15:48.360Z,7.32
2023-04-16T07:18:14.838Z,7.29
2023-04-16T07:20:41.340Z,7.39
2023-04-16T07:23:07.835Z,7.41
2023-04-16T07:25:34.325Z,7.48
2023-04-16T07:28:00.775Z,7.48
2023-04-16T07:30:32.744Z,7.52
2023-04-16T07:32:59.650Z,7.81
2023-04-16T07:35:27.635Z,7.82
2023-04-16T07:37:56.204Z,7.96
2023-04-16T07:40:26.871Z,7.84
2023-04-16T07:42:57.611Z,7.77
2023-04-16T07:45:26.807Z,7.80
2023-04-16T07:47:53.345Z,7.60
2023-04-16T07:50:19.847Z,7.49
2023-04-16T07:52:47.305Z,7.43
2023-04-16T07:55:13.856Z,7.34
2023-04-16T07:57:41.634Z,7.46
2023-04-16T08:00:11.413Z,7.52
2023-04-16T08:02:38.553Z,7.60
2023-04-16T08:05:05.619Z,7.66
2023-04-16T08:07:34.394Z,7.66
2023-04-16T08:10:01.375Z,7.75
2023-04-16T08:12:29.058Z,7.91
2023-04-16T08:14:58.607Z,7.87
2023-04-16T08:17:28.375Z,7.93
2023-04-16T08:19:59.348Z,8.04
2023-04-16T08:22:29.071Z,8.17
2023-04-16T08:24:58.609Z,8.30
2023-04-16T08:27:26.645Z,8.49
2023-04-16T08:29:53.116Z,8.64
2023-04-16T08:32:19.629Z,8.69
2023-04-16T08:34:46.289Z,8.59
2023-04-16T08:37:12.815Z,8.53
2023-04-16T08:39:39.270Z,8.52
2023-04-16T08:42:10.031Z,8.59
2023-04-16T08:44:42.114Z,8.73
2023-04-16T08:47:11.434Z,8.93
2023-04-16T08:49:43.686Z,9.03
2023-04-16T08:52:15.609Z,9.13
2023-04-16T08:54:56.684Z,9.29
2023-04-16T08:57:26.868Z,9.26
2023-04-16T08:59:59.099Z,9.23
2023-04-16T09:02:27.061Z,9.62
2023-04-16T09:04:58.230Z,9.78
2023-04-16T09:07:27.518Z,9.41
2023-04-16T09:09:59.805Z,9.41
2023-04-16T09:12:27.248Z,9.98
2023-04-16T09:14:54.606Z,10.25
2023-04-16T09:17:21.314Z,10.10
2023-04-16T09:19:48.328Z,10.02
2023-04-16T09:22:15.127Z,9.97
2023-04-16T09:24:42.169Z,10.18
2023-04-16T09:27:09.354Z,10.34
2023-04-16T09:29:40.851Z,11.20
2023-04-16T09:32:09.695Z,11.49
2023-04-16T09:35:00.673Z,11.65
2023-04-16T09:37:31.215Z,11.65
2023-04-16T09:40:03.946Z,11.49
2023-04-16T09:42:32.600Z,11.41
2023-04-16T09:45:01.390Z,11.72
2023-04-16T09:47:42.812Z,11.87
2023-04-16T09:50:12.630Z,11.92
2023-04-16T09:52:39.737Z,11.98
2023-04-16T09:55:06.826Z,12.44
2023-04-16T09:57:33.328Z,13.37
2023-04-16T10:00:05.612Z,14.17
2023-04-16T10:02:34.692Z,14.52
2023-04-16T10:05:03.086Z,15.13
2023-04-16T10:07:33.169Z,15.65
2023-04-16T10:10:02.967Z,15.66
2023-04-16T10:12:30.700Z,15.47
2023-04-16T10:15:00.335Z,16.06
2023-04-16T10:17:29.936Z,16.66
2023-04-16T10:19:58.231Z,17.50
2023-04-16T10:22:27.764Z,18.00
2023-04-16T10:24:58.565Z,18.24
2023-04-16T10:27:26.928Z,17.97
2023-04-16T10:29:56.591Z,17.30
2023-04-16T10:32:28.730Z,17.18
2023-04-16T10:34:56.824Z,17.10
2023-04-16T10:37:31.352Z,17.02
2023-04-16T10:40:01.341Z,16.80
2023-04-16T10:42:28.067Z,16.96
2023-04-16T10:44:55.192Z,16.97
2023-04-16T10:47:28.045Z,17.58
2023-04-16T10:49:57.312Z,17.84
2023-04-16T10:52:28.285Z,17.09
2023-04-16T10:54:56.414Z,16.47
2023-04-16T10:57:22.839Z,16.12
2023-04-16T10:59:49.490Z,16.16
2023-04-16T11:02:18.824Z,16.72
2023-04-16T11:04:47.868Z,16.95
2023-04-16T11:07:48.927Z,17.62
2023-04-16T11:10:16.538Z,18.52
2023-04-16T11:12:46.327Z,19.37
2023-04-16T11:15:16.450Z,20.10
2023-04-16T11:17:44.871Z,19.28
2023-04-16T11:20:28.362Z,18.53
2023-04-16T11:22:57.184Z,18.37
2023-04-16T11:25:36.039Z,18.14
2023-04-16T11:28:02.678Z,18.31
2023-04-16T11:30:34.670Z,18.28
2023-04-16T11:33:19.070Z,18.61
2023-04-16T11:35:58.181Z,19.04
2023-04-16T11:38:38.783Z,20.11
2023-04-16T11:41:05.629Z,20.76
2023-04-16T11:43:32.561Z,21.63
2023-04-16T11:46:07.474Z,21.82
2023-04-16T11:48:47.930Z,21.82
2023-04-16T11:51:14.990Z,22.04
2023-04-16T11:53:49.701Z,21.69
2023-04-16T11:56:17.497Z,21.71
2023-04-16T11:58:43.986Z,21.53
2023-04-16T12:01:10.952Z,21.77
2023-04-16T12:03:39.472Z,21.90
2023-04-16T12:06:10.445Z,22.22
2023-04-16T12:08:36.972Z,22.50
2023-04-16T12:11:03.576Z,21.97
2023-04-16T12:13:30.697Z,22.47
2023-04-16T12:15:57.512Z,22.48
2023-04-16T12:18:28.591Z,22.80
2023-04-16T12:20:55.468Z,22.49
2023-04-16T12:23:33.941Z,22.37
2023-04-16T12:26:10.827Z,22.09
2023-04-16T12:28:41.616Z,22.36
2023-04-16T12:31:08.507Z,22.74
2023-04-16T12:33:35.159Z,22.29
2023-04-16T12:36:03.628Z,22.44
2023-04-16T12:38:30.240Z,22.42
2023-04-16T12:41:00.838Z,22.95
2023-04-16T12:43:30.957Z,22.99
2023-04-16T12:45:58.559Z,23.01
2023-04-16T12:48:25.152Z,23.23
2023-04-16T12:50:53.880Z,23.05
2023-04-16T12:53:20.459Z,22.84
2023-04-16T12:55:47.045Z,22.01
2023-04-16T12:58:13.773Z,21.81
2023-04-16T13:00:40.574Z,21.54
2023-04-16T13:03:07.232Z,21.96
2023-04-16T13:05:34.170Z,21.95
2023-04-16T13:08:00.802Z,21.84
2023-04-16T13:10:30.562Z,21.63
2023-04-16T13:12:57.010Z,21.39
2023-04-16T13:15:23.439Z,21.01
2023-04-16T13:17:49.927Z,21.73
2023-04-16T13:20:16.516Z,21.87
2023-04-16T13:22:43.276Z,21.62
2023-04-16T13:25:09.947Z,21.80
2023-04-16T13:27:36.428Z,21.51
2023-04-16T13:30:02.969Z,20.73
2023-04-16T13:32:33.191Z,19.98
2023-04-16T13:35:02.394Z,19.50
2023-04-16T13:37:32.819Z,18.87
2023-04-16T13:40:02.677Z,19.50
2023-04-16T13:42:33.255Z,18.89
2023-04-16T13:45:03.247Z,17.98
2023-04-16T13:47:32.790Z,17.45
2023-04-16T13:50:02.921Z,17.49
2023-04-16T13:52:36.872Z,17.82
2023-04-16T13:55:03.908Z,17.57
2023-04-16T13:57:33.338Z,17.23
2023-04-16T14:00:03.362Z,17.09
2023-04-16T14:02:32.909Z,16.99
2023-04-16T14:05:02.292Z,17.08
2023-04-16T14:07:32.940Z,17.22
2023-04-16T14:10:02.438Z,17.14
2023-04-16T14:12:31.363Z,17.23
2023-04-16T14:14:58.314Z,17.31
2023-04-16T14:17:24.925Z,17.09
2023-04-16T14:19:54.438Z,17.16
2023-04-16T14:22:21.102Z,17.44
2023-04-16T14:24:47.579Z,17.50
2023-04-16T14:27:14.235Z,16.92
2023-04-16T14:29:41.516Z,16.47
2023-04-16T14:32:11.592Z,15.91
2023-04-16T14:34:38.107Z,15.15
2023-04-16T14:37:05.606Z,14.54
2023-04-16T14:39:32.170Z,14.03
2023-04-16T14:41:59.935Z,13.97
2023-04-16T14:44:26.378Z,13.72
2023-04-16T14:46:53.802Z,13.86
2023-04-16T14:49:20.240Z,13.68
2023-04-16T14:51:46.978Z,13.39
2023-04-16T14:54:13.463Z,13.19
2023-04-16T14:56:40.013Z,13.22
2023-04-16T14:59:06.880Z,13.19
2023-04-16T15:01:34.618Z,13.05
2023-04-16T15:04:03.827Z,13.01
2023-04-16T15:06:32.371Z,13.13
2023-04-16T15:09:01.253Z,13.23
2023-04-16T15:11:30.888Z,13.27
2023-04-16T15:13:57.378Z,13.18
2023-04-16T15:16:23.958Z,13.18
2023-04-16T15:18:51.000Z,12.84
2023-04-16T15:21:17.470Z,12.47
2023-04-16T15:23:43.991Z,12.49
2023-04-16T15:26:10.500Z,12.51
2023-04-16T15:28:37.095Z,12.40
2023-04-16T15:31:03.572Z,12.11
2023-04-16T15:33:32.829Z,11.99
2023-04-16T15:36:01.432Z,11.69
2023-04-16T15:38:31.247Z,11.76
2023-04-16T15:41:03.894Z,11.71
2023-04-16T15:43:31.305Z,11.76
2023-04-16T15:45:57.950Z,11.67
2023-04-16T15:48:24.742Z,11.38
2023-04-16T15:50:51.936Z,11.24
2023-04-16T15:53:18.540Z,11.33
2023-04-16T15:55:45.378Z,11.28
2023-04-16T15:58:12.839Z,11.23
2023-04-16T16:00:39.748Z,11.04
2023-04-16T16:03:06.695Z,11.03
2023-04-16T16:05:33.884Z,10.99
2023-04-16T16:08:01.861Z,10.95
2023-04-16T16:10:28.396Z,10.96
2023-04-16T16:12:54.874Z,11.18
2023-04-16T16:15:21.678Z,10.74
2023-04-16T16:17:48.203Z,10.54
2023-04-16T16:20:14.777Z,10.39
2023-04-16T16:22:43.105Z,10.59
2023-04-16T16:25:10.298Z,10.33
2023-04-16T16:27:36.809Z,10.18
2023-04-16T16:30:06.465Z,10.27
2023-04-16T16:32:33.008Z,10.27
2023-04-16T16:35:02.950Z,10.13
2023-04-16T16:37:32.411Z,10.09
2023-04-16T16:40:01.731Z,9.93
2023-04-16T16:42:28.364Z,9.90
2023-04-16T16:44:57.311Z,10.00
2023-04-16T16:47:27.012Z,9.87
2023-04-16T16:49:54.761Z,9.80
2023-04-16T16:52:25.366Z,9.97
2023-04-16T16:54:56.729Z,9.85
2023-04-16T16:57:27.074Z,9.73
2023-04-16T16:59:54.617Z,9.55
2023-04-16T17:02:21.412Z,9.60
2023-04-16T17:04:47.957Z,9.82
2023-04-16T17:07:14.522Z,9.63
2023-04-16T17:09:41.246Z,9.57
2023-04-16T17:12:07.866Z,9.50
2023-04-16T17:14:35.002Z,9.51
2023-04-16T17:17:04.489Z,9.48
2023-04-16T17:19:31.356Z,9.33
2023-04-16T17:22:06.738Z,9.37
2023-04-16T17:24:33.209Z,9.24
2023-04-16T17:27:04.075Z,9.29
2023-04-16T17:29:33.317Z,9.18
2023-04-16T17:32:01.580Z,9.21
2023-04-16T17:34:28.621Z,9.15
2023-04-16T17:36:55.665Z,9.36
2023-04-16T17:39:22.181Z,9.19
2023-04-16T17:41:54.142Z,9.24
2023-04-16T17:44:28.135Z,9.23
2023-04-16T17:46:54.654Z,9.03
2023-04-16T17:49:21.195Z,9.10
2023-04-16T17:55:00.722Z,8.90
2023-04-16T17:57:27.792Z,8.53
2023-04-16T17:59:54.291Z,8.94
2023-04-16T18:05:19.844Z,8.92
2023-04-16T18:07:47.123Z,8.85
2023-04-16T18:10:17.030Z,8.87
2023-04-16T18:12:43.496Z,8.91
2023-04-16T18:15:10.564Z,8.67
2023-04-16T18:18:06.314Z,8.73
2023-04-16T18:20:33.142Z,8.75
2023-04-16T18:23:03.072Z,8.73
2023-04-16T18:25:34.873Z,8.64
2023-04-16T18:28:03.593Z,8.65
2023-04-16T18:30:34.667Z,8.46
2023-04-16T18:33:21.363Z,8.60
2023-04-16T18:35:50.903Z,8.43
2023-04-16T18:38:17.380Z,8.51
2023-04-16T18:40:43.821Z,8.30
2023-04-16T18:43:10.365Z,8.29
2023-04-16T18:45:37.049Z,8.14
2023-04-16T18:48:04.221Z,8.39
2023-04-16T18:50:33.667Z,8.27
2023-04-16T18:53:02.794Z,8.25
2023-04-16T18:55:32.920Z,8.31
2023-04-16T18:58:00.702Z,8.20
2023-04-16T19:00:27.411Z,8.10
2023-04-16T19:02:53.973Z,8.21
2023-04-16T19:05:21.253Z,8.29
2023-04-16T19:07:47.800Z,8.26
2023-04-16T19:10:14.467Z,8.30
2023-04-16T19:12:41.309Z,8.27
2023-04-16T19:15:08.113Z,8.22
2023-04-16T19:17:34.636Z,8.25
2023-04-16T19:20:10.505Z,8.19
2023-04-16T19:22:38.173Z,8.33
2023-04-16T19:25:06.080Z,8.32
2023-04-16T19:27:33.032Z,8.27
2023-04-16T19:30:02.350Z,8.43
2023-04-16T19:32:28.960Z,8.47
2023-04-16T19:34:55.450Z,8.37
2023-04-16T19:37:21.985Z,8.42
2023-04-16T19:39:48.485Z,8.48
2023-04-16T19:42:14.912Z,8.39
2023-04-16T19:44:41.435Z,8.37
2023-04-16T19:47:07.917Z,8.53
2023-04-16T19:49:34.677Z,8.47
2023-04-16T19:52:04.596Z,8.42
2023-04-16T19:54:34.751Z,8.35
2023-04-16T19:57:06.252Z,8.40
2023-04-16T19:59:33.043Z,8.38
2023-04-16T20:02:01.741Z,8.32
2023-04-16T20:04:28.431Z,8.17
2023-04-16T20:06:55.392Z,8.30
2023-04-16T20:13:35.191Z,8.14
2023-04-16T20:16:32.383Z,8.23
2023-04-16T20:19:04.681Z,8.24
2023-04-16T20:21:38.433Z,8.07
2023-04-16T20:24:05.057Z,8.24
2023-04-16T20:26:34.731Z,8.07
2023-04-16T20:29:04.163Z,8.02
2023-04-16T20:31:31.510Z,8.21
2023-04-16T20:33:58.096Z,8.20
2023-04-16T20:36:24.548Z,8.18
2023-04-16T20:38:53.833Z,8.20
2023-04-16T20:41:21.306Z,8.14
2023-04-16T20:43:50.187Z,8.06
2023-04-16T20:46:17.669Z,8.20
2023-04-16T20:48:44.623Z,8.23
2023-04-16T20:51:11.103Z,8.23
2023-04-16T20:53:38.341Z,8.14
2023-04-16T20:56:05.382Z,8.03
2023-04-16T20:58:34.466Z,8.09
2023-04-16T21:01:01.025Z,8.03
2023-04-16T21:03:27.709Z,8.04
2023-04-16T21:05:55.582Z,7.97
2023-04-16T21:08:23.308Z,8.01
2023-04-16T21:10:50.550Z,7.86
2023-04-16T21:13:17.203Z,7.92
2023-04-16T21:15:44.684Z,7.84
2023-04-16T21:18:11.763Z,7.83
2023-04-16T21:20:39.418Z,7.86
2023-04-16T21:23:06.328Z,7.85
2023-04-16T21:25:33.958Z,7.76
2023-04-16T21:28:00.554Z,7.75
2023-04-16T21:30:27.087Z,7.65
2023-04-16T21:32:53.577Z,7.54
2023-04-16T21:35:20.211Z,7.54
2023-04-16T21:37:46.918Z,7.62
2023-04-16T21:40:13.622Z,7.56
2023-04-16T21:42:42.104Z,7.45
2023-04-16T21:45:09.987Z,7.45
2023-04-16T21:47:37.002Z,7.42
2023-04-16T21:50:06.323Z,7.35
2023-04-16T21:52:33.149Z,7.31
2023-04-16T21:55:00.608Z,7.20
2023-04-16T21:57:27.105Z,7.16
2023-04-16T21:59:53.624Z,7.13
2023-04-16T22:02:20.518Z,7.08
2023-04-16T22:04:47.289Z,7.12
2023-04-16T22:07:13.828Z,7.20
2023-04-16T22:09:40.844Z,7.12
2023-04-16T22:12:10.502Z,7.22
2023-04-16T22:14:46.215Z,7.32
2023-04-16T22:17:17.166Z,7.31
2023-04-16T22:19:44.563Z,7.42
2023-04-16T22:22:11.013Z,7.43
2023-04-16T22:24:40.497Z,7.54
2023-04-16T22:27:09.881Z,7.48
2023-04-16T22:29:39.635Z,7.49
2023-04-16T22:32:06.330Z,7.60
2023-04-16T22:34:32.863Z,7.64
2023-04-16T22:37:01.412Z,7.57
2023-04-16T22:39:28.611Z,7.52
2023-04-16T22:41:56.048Z,7.56
2023-04-16T22:44:22.539Z,7.56
2023-04-16T22:46:49.042Z,7.47
2023-04-16T22:49:15.481Z,7.42
2023-04-16T22:51:42.560Z,7.28
2023-04-16T22:54:13.665Z,7.31
2023-04-16T22:56:40.988Z,7.23
2023-04-16T22:59:10.230Z,7.15
2023-04-16T23:01:37.311Z,7.04
2023-04-16T23:04:04.166Z,7.10
2023-04-16T23:06:31.430Z,7.12
2023-04-16T23:08:57.881Z,7.11
2023-04-16T23:11:24.429Z,7.08
2023-04-16T23:13:51.166Z,7.14
2023-04-16T23:16:17.692Z,7.20
2023-04-16T23:18:44.196Z,7.07
2023-04-16T23:21:11.706Z,7.13
2023-04-16T23:23:38.126Z,7.09
2023-04-16T23:26:04.883Z,6.97
2023-04-16T23:28:31.394Z,7.04
2023-04-16T23:30:57.938Z,7.11
2023-04-16T23:33:24.451Z,7.15
2023-04-16T23:35:50.920Z,7.12
2023-04-16T23:38:17.335Z,7.26
2023-04-16T23:40:43.824Z,7.15
2023-04-16T23:43:17.249Z,7.20
2023-04-16T23:45:43.800Z,7.30
2023-04-16T23:48:12.498Z,7.36
2023-04-16T23:50:38.946Z,7.38
2023-04-16T23:53:05.522Z,7.42
2023-04-16T23:55:31.978Z,7.50
2023-04-16T23:57:58.455Z,7.51
